createdAt,value
2024-05-09T00:00:45.323Z,2.1012
2024-05-09T00:05:51.894Z,2.0185
2024-05-09T00:10:58.686Z,1.9457
2024-05-09T00:16:05.444Z,1.8417
2024-05-09T00:21:12.499Z,2.0745
2024-05-09T00:26:19.341Z,1.7269
2024-05-09T00:31:26.176Z,1.7106
2024-05-09T00:36:36.122Z,2.2296
2024-05-09T00:41:40.103Z,1.7367
2024-05-09T00:46:46.995Z,2.0736
2024-05-09T00:51:54.019Z,2.0011
2024-05-09T00:57:00.602Z,2.054
2024-05-09T01:02:07.571Z,2.2
2024-05-09T01:07:14.265Z,2.0795
2024-05-09T01:12:21.448Z,2.341
2024-05-09T01:17:28.135Z,1.6216
2024-05-09T01:22:36.872Z,2.1652
2024-05-09T01:27:43.451Z,2.0768
2024-05-09T01:32:50.621Z,2.507
2024-05-09T01:37:57.529Z,2.1479
2024-05-09T01:43:04.612Z,1.8478
2024-05-09T01:48:11.898Z,1.8544
2024-05-09T01:53:18.403Z,2.0298
2024-05-09T01:58:26.265Z,2.2778
2024-05-09T02:03:31.966Z,1.6825
2024-05-09T02:08:38.544Z,1.8852
2024-05-09T02:13:45.357Z,1.9222
2024-05-09T02:18:52.154Z,1.8802
2024-05-09T02:23:59.014Z,1.8022
2024-05-09T02:29:06.009Z,1.9986
2024-05-09T02:34:13.122Z,2.3875
2024-05-09T02:39:19.957Z,1.8596
2024-05-09T02:44:26.856Z,2.5732
2024-05-09T02:49:33.646Z,2.188
2024-05-09T02:54:40.030Z,2.5178
2024-05-09T02:59:46.835Z,2.1904
2024-05-09T03:04:53.890Z,2.4303
2024-05-09T03:10:00.770Z,2.0648
2024-05-09T03:15:07.432Z,3.0011
2024-05-09T03:20:20.585Z,2.3964
2024-05-09T03:25:21.169Z,2.5743
2024-05-09T03:30:36.120Z,2.8297
2024-05-09T03:35:34.955Z,2.4014
2024-05-09T03:40:41.705Z,2.5442
2024-05-09T03:45:48.558Z,2.2182
2024-05-09T03:50:55.140Z,2.5055
2024-05-09T03:56:01.994Z,2.3649
2024-05-09T04:01:08.834Z,2.4887
2024-05-09T04:06:15.402Z,2.676
2024-05-09T04:11:22.313Z,2.5998
2024-05-09T04:16:28.995Z,2.7582
2024-05-09T04:21:35.728Z,2.824
2024-05-09T04:26:42.708Z,2.8957
2024-05-09T04:31:49.426Z,3.2677
2024-05-09T04:36:58.204Z,3.8445
2024-05-09T04:42:09.804Z,3.5875
2024-05-09T04:47:11.478Z,3.4355
2024-05-09T04:52:18.524Z,3.404
2024-05-09T04:57:25.440Z,3.5085
2024-05-09T05:02:32.176Z,3.5604
2024-05-09T05:07:38.754Z,2.9457
2024-05-09T05:12:45.490Z,3.3608
2024-05-09T05:17:52.366Z,3.7596
2024-05-09T05:22:59.298Z,3.9969
2024-05-09T05:28:05.694Z,4.442
2024-05-09T05:33:13.091Z,3.8924
2024-05-09T05:38:21.918Z,4.1192
2024-05-09T05:43:26.461Z,3.5759
2024-05-09T05:48:33.476Z,3.9228
2024-05-09T05:53:40.205Z,3.636
2024-05-09T05:58:46.680Z,3.8846
2024-05-09T06:03:53.883Z,3.7155
2024-05-09T06:09:00.833Z,3.5847
2024-05-09T06:14:08.019Z,4.1351
2024-05-09T06:19:15.151Z,3.643
2024-05-09T06:24:21.986Z,3.2564
2024-05-09T06:29:28.922Z,3.6194
2024-05-09T06:34:35.564Z,3.2843
2024-05-09T06:39:42.542Z,3.3459
2024-05-09T06:44:49.671Z,3.459
2024-05-09T06:49:56.747Z,3.0723
2024-05-09T06:55:03.611Z,3.0525
2024-05-09T07:00:15.440Z,3.501
2024-05-09T07:05:17.309Z,3.2555
2024-05-09T07:10:29.147Z,2.8196
2024-05-09T07:15:31.154Z,3.4117
2024-05-09T07:20:38.304Z,3.4664
2024-05-09T07:25:45.797Z,3.1004
2024-05-09T07:30:52.515Z,2.8404
2024-05-09T07:35:59.633Z,2.6191
2024-05-09T07:41:06.517Z,3.1308
2024-05-09T07:47:14.311Z,2.1366
2024-05-09T07:56:28.119Z,2.6299
2024-05-09T08:01:34.805Z,2.5255
2024-05-09T08:06:41.730Z,2.3112
2024-05-09T08:11:48.924Z,1.9524
2024-05-09T08:16:56.138Z,1.9859
2024-05-09T08:22:03.082Z,1.9819
2024-05-09T08:27:09.963Z,1.8312
2024-05-09T08:32:16.995Z,1.4416
2024-05-09T08:37:27.656Z,1.1195
2024-05-09T08:42:30.485Z,1.0168
2024-05-09T08:47:37.605Z,0.9074
2024-05-09T08:52:44.710Z,0.824
2024-05-09T08:57:52.109Z,0.9031
2024-05-09T09:03:00.819Z,1.0183
2024-05-09T09:08:05.644Z,0.9715
2024-05-09T09:13:12.937Z,1.0455
2024-05-09T09:18:20.126Z,0.8671
2024-05-09T09:23:27.056Z,0.9878
2024-05-09T09:28:39.060Z,1.02
2024-05-09T09:33:43.860Z,0.8255
2024-05-09T09:38:50.374Z,1.2093
2024-05-09T09:43:57.649Z,0.8938
2024-05-09T09:49:04.698Z,0.7729
2024-05-09T09:54:11.561Z,1.2567
2024-05-09T09:59:18.766Z,0.9411
2024-05-09T10:04:26.348Z,1.1881
2024-05-09T10:09:33.486Z,1.057
2024-05-09T10:14:41.222Z,1.0307
2024-05-09T10:19:47.866Z,0.873
2024-05-09T10:24:55.031Z,0.9204
2024-05-09T10:30:03.844Z,0.8415
2024-05-09T10:35:09.326Z,0.994
2024-05-09T10:40:23.358Z,0.9888
2024-05-09T10:45:23.224Z,0.8259
2024-05-09T10:50:34.158Z,0.6576
2024-05-09T10:55:37.856Z,0.8627
2024-05-09T11:00:44.916Z,0.8732
2024-05-09T11:05:51.859Z,1.0732
2024-05-09T11:10:58.973Z,0.7207
2024-05-09T11:16:06.152Z,0.8785
2024-05-09T11:21:13.629Z,0.9838
2024-05-09T11:26:22.477Z,0.8364
2024-05-09T11:31:29.033Z,0.9101
2024-05-09T11:31:31.351Z,0.9101
2024-05-09T11:36:37.870Z,0.8469
2024-05-09T11:41:44.590Z,0.7312
2024-05-09T11:46:51.569Z,1.1414
2024-05-09T11:51:58.479Z,1.1677
2024-05-09T11:57:05.357Z,1.0152
2024-05-09T12:02:12.458Z,0.9048
2024-05-09T12:07:19.463Z,0.8311
2024-05-09T12:12:26.445Z,1.2415
2024-05-09T12:17:33.761Z,1.0995
2024-05-09T12:22:40.600Z,0.868
2024-05-09T12:27:49.709Z,1.0994
2024-05-09T12:32:54.559Z,1.0153
2024-05-09T12:38:01.573Z,0.8102
2024-05-09T12:43:09.976Z,0.9628
2024-05-09T12:48:16.039Z,0.726
2024-05-09T12:53:23.197Z,1.0101
2024-05-09T12:58:30.421Z,0.9154
2024-05-09T13:03:37.459Z,0.8785
2024-05-09T13:08:44.671Z,0.8838
2024-05-09T13:13:51.666Z,0.9102
2024-05-09T13:18:58.809Z,0.9943
2024-05-09T13:24:05.819Z,1.0049
2024-05-09T13:29:12.813Z,1.2258
2024-05-09T13:34:20.303Z,0.9786
2024-05-09T13:39:27.197Z,0.9997
2024-05-09T13:44:34.048Z,0.9207
2024-05-09T13:49:41.675Z,0.6156
2024-05-09T13:54:48.386Z,0.8629
2024-05-09T13:59:55.521Z,0.968
2024-05-09T14:05:03.054Z,0.9786
2024-05-09T14:10:19.755Z,0.8313
2024-05-09T14:15:17.750Z,0.784
2024-05-09T14:20:31.060Z,0.684
2024-05-09T14:25:34.637Z,0.9577
2024-05-09T14:30:39.657Z,0.7998
2024-05-09T14:35:46.301Z,1.0839
2024-05-09T14:40:53.986Z,0.642
2024-05-09T14:46:01.375Z,0.9104
2024-05-09T14:51:08.791Z,0.9419
2024-05-09T14:56:15.672Z,1.0314
2024-05-09T15:01:23.362Z,0.6631
2024-05-09T15:06:30.409Z,0.8051
2024-05-09T15:11:37.974Z,1.0841
2024-05-09T15:16:45.579Z,0.7683
2024-05-09T15:21:53.128Z,0.8947
2024-05-09T15:27:00.576Z,0.6947
2024-05-09T15:32:08.028Z,0.5158
2024-05-09T15:37:15.211Z,0.7526
2024-05-09T15:42:22.666Z,0.6315
2024-05-09T15:47:30.095Z,0.8841
2024-05-09T15:52:37.207Z,0.6684
2024-05-09T15:57:44.194Z,0.621
2024-05-09T16:02:51.455Z,0.7736
2024-05-09T16:07:58.581Z,0.6789
2024-05-09T16:13:05.858Z,0.6631
2024-05-09T16:18:12.797Z,0.8105
2024-05-09T16:23:19.767Z,0.8999
2024-05-09T16:28:27.126Z,0.6105
2024-05-09T16:33:33.108Z,0.8946
2024-05-09T16:38:39.858Z,0.821
2024-05-09T16:43:47.467Z,0.6684
2024-05-09T16:48:54.837Z,0.5473
2024-05-09T16:54:02.153Z,0.521
2024-05-09T16:59:08.978Z,0.7999
2024-05-09T17:04:16.198Z,0.8052
2024-05-09T17:09:22.670Z,0.6999
2024-05-09T17:14:29.655Z,0.8525
2024-05-09T17:19:36.718Z,0.8104
2024-05-09T17:24:44.142Z,1.0946
2024-05-09T17:29:51.173Z,0.942
2024-05-09T17:34:58.309Z,0.8315
2024-05-09T17:40:09.125Z,0.5473
2024-05-09T17:45:12.878Z,0.7894
2024-05-09T17:50:27.516Z,0.8421
2024-05-09T17:55:29.974Z,0.6631
2024-05-09T18:00:40.263Z,0.7367
2024-05-09T18:05:43.343Z,0.7841
2024-05-09T18:10:48.609Z,0.6525
2024-05-09T18:15:55.106Z,0.5683
2024-05-09T18:21:01.812Z,0.7209
2024-05-09T18:26:08.770Z,0.9839
2024-05-09T18:31:15.581Z,0.8892
2024-05-09T18:36:22.432Z,0.9049
2024-05-09T18:41:29.376Z,0.8365
2024-05-09T18:46:36.400Z,0.7786
2024-05-09T18:51:43.232Z,1.0467
2024-05-09T18:56:50.236Z,0.9782
2024-05-09T19:01:57.119Z,0.7624
2024-05-09T19:07:03.872Z,0.9936
2024-05-09T19:12:10.595Z,1.067
2024-05-09T19:17:17.357Z,1.1143
2024-05-09T19:22:28.772Z,1.2983
2024-05-09T19:27:31.192Z,1.0093
2024-05-09T19:32:38.427Z,1.2194
2024-05-09T19:37:45.097Z,1.1824
2024-05-09T19:42:52.104Z,1.0247
2024-05-09T19:47:59.246Z,0.9827
2024-05-09T19:53:05.789Z,1.0771
2024-05-09T19:58:13.290Z,1.0823
2024-05-09T20:03:20.087Z,0.9244
2024-05-09T20:08:26.633Z,1.2815
2024-05-09T20:13:33.603Z,1.234
2024-05-09T20:18:40.520Z,1.1342
2024-05-09T20:23:47.341Z,1.2233
2024-05-09T20:28:54.464Z,0.8768
2024-05-09T20:34:01.127Z,1.2602
2024-05-09T20:39:08.161Z,1.055
2024-05-09T20:44:14.968Z,0.8293
2024-05-09T20:49:22.536Z,1.2335
2024-05-09T20:54:28.836Z,1.0391
2024-05-09T20:59:35.726Z,0.9288
2024-05-09T21:04:42.454Z,1.4792
2024-05-09T21:09:49.084Z,1.1645
2024-05-09T21:14:55.921Z,1.2537
2024-05-09T21:20:05.737Z,1.2849
2024-05-09T21:25:14.806Z,1.3058
2024-05-09T21:30:23.110Z,1.2483
2024-05-09T21:35:23.187Z,1.0066
2024-05-09T21:40:34.432Z,1.1902
2024-05-09T21:45:37.291Z,1.0331
2024-05-09T21:50:43.808Z,0.9755
2024-05-09T21:55:50.724Z,1.3269
2024-05-09T22:00:57.735Z,1.2639
2024-05-09T22:06:04.470Z,1.0014
2024-05-09T22:11:11.679Z,1.0902
2024-05-09T22:16:18.363Z,1.2475
2024-05-09T22:21:25.303Z,1.4569
2024-05-09T22:26:32.158Z,1.2734
2024-05-09T22:31:39.195Z,1.2156
2024-05-09T22:36:45.990Z,1.158
2024-05-09T22:41:53.112Z,0.9852
2024-05-09T22:46:59.591Z,1.2578
2024-05-09T22:52:06.457Z,1.2206
2024-05-09T22:57:13.326Z,1.1371
2024-05-09T23:02:20.453Z,1.2892
2024-05-09T23:07:26.897Z,0.9273
2024-05-09T23:12:33.827Z,0.9326
2024-05-09T23:17:40.697Z,1.1262
2024-05-09T23:22:47.596Z,1.1785
2024-05-09T23:27:54.289Z,1.0322
2024-05-09T23:33:01.579Z,1.1156
2024-05-09T23:38:07.851Z,1.1889
2024-05-09T23:43:14.783Z,1.3034
2024-05-09T23:48:21.380Z,1.4859
2024-05-09T23:53:28.092Z,1.4856
2024-05-09T23:58:35.088Z,1.5268
